sensor_id;sensor_type;location;lat;lon;timestamp;P1;durP1;ratioP1;P2;durP2;ratioP2
27303;SDS011;14791;52.392;13.092;2023-06-19T00:00:22;5.65;;;5.45;;
27303;SDS011;14791;52.392;13.092;2023-06-19T00:02:51;6.17;;;5.97;;
27303;SDS011;14791;52.392;13.092;2023-06-19T00:05:21;5.70;;;5.58;;
27303;SDS011;14791;52.392;13.092;2023-06-19T00:07:51;6.12;;;5.92;;
27303;SDS011;14791;52.392;13.092;2023-06-19T00:10:20;6.03;;;5.83;;
27303;SDS011;14791;52.392;13.092;2023-06-19T00:12:50;6.47;;;6.17;;
27303;SDS011;14791;52.392;13.092;2023-06-19T00:15:19;6.17;;;5.87;;
27303;SDS011;14791;52.392;13.092;2023-06-19T00:17:48;6.42;;;6.22;;
27303;SDS011;14791;52.392;13.092;2023-06-19T00:20:17;6.30;;;6.12;;
27303;SDS011;14791;52.392;13.092;2023-06-19T00:22:46;6.30;;;6.10;;
27303;SDS011;14791;52.392;13.092;2023-06-19T00:25:17;6.40;;;6.20;;
27303;SDS011;14791;52.392;13.092;2023-06-19T00:27:47;7.12;;;6.85;;
27303;SDS011;14791;52.392;13.092;2023-06-19T00:30:16;6.37;;;6.17;;
27303;SDS011;14791;52.392;13.092;2023-06-19T00:32:45;6.50;;;6.30;;
27303;SDS011;14791;52.392;13.092;2023-06-19T00:35:14;6.17;;;5.95;;
27303;SDS011;14791;52.392;13.092;2023-06-19T00:37:45;5.92;;;5.72;;
27303;SDS011;14791;52.392;13.092;2023-06-19T00:40:19;5.67;;;5.58;;
27303;SDS011;14791;52.392;13.092;2023-06-19T00:42:49;5.37;;;5.25;;
27303;SDS011;14791;52.392;13.092;2023-06-19T00:45:18;5.75;;;5.55;;
27303;SDS011;14791;52.392;13.092;2023-06-19T00:47:47;6.15;;;5.95;;
27303;SDS011;14791;52.392;13.092;2023-06-19T00:50:16;5.83;;;5.65;;
27303;SDS011;14791;52.392;13.092;2023-06-19T00:52:45;6.28;;;6.08;;
27303;SDS011;14791;52.392;13.092;2023-06-19T00:55:16;5.78;;;5.67;;
27303;SDS011;14791;52.392;13.092;2023-06-19T00:57:46;6.40;;;6.20;;
27303;SDS011;14791;52.392;13.092;2023-06-19T01:00:16;6.53;;;6.33;;
27303;SDS011;14791;52.392;13.092;2023-06-19T01:02:45;6.20;;;6.10;;
27303;SDS011;14791;52.392;13.092;2023-06-19T01:05:15;6.35;;;6.15;;
27303;SDS011;14791;52.392;13.092;2023-06-19T01:07:54;6.25;;;6.05;;
27303;SDS011;14791;52.392;13.092;2023-06-19T01:10:33;6.65;;;6.35;;
27303;SDS011;14791;52.392;13.092;2023-06-19T01:13:07;6.60;;;6.40;;
27303;SDS011;14791;52.392;13.092;2023-06-19T01:15:38;6.22;;;6.03;;
27303;SDS011;14791;52.392;13.092;2023-06-19T01:18:09;6.67;;;6.47;;
27303;SDS011;14791;52.392;13.092;2023-06-19T01:20:43;7.08;;;6.87;;
27303;SDS011;14791;52.392;13.092;2023-06-19T01:23:12;6.67;;;6.50;;
27303;SDS011;14791;52.392;13.092;2023-06-19T01:25:41;6.53;;;6.33;;
27303;SDS011;14791;52.392;13.092;2023-06-19T01:28:11;7.03;;;6.75;;
27303;SDS011;14791;52.392;13.092;2023-06-19T01:30:41;7.10;;;6.90;;
27303;SDS011;14791;52.392;13.092;2023-06-19T01:33:13;7.25;;;7.00;;
27303;SDS011;14791;52.392;13.092;2023-06-19T01:35:45;7.08;;;6.87;;
27303;SDS011;14791;52.392;13.092;2023-06-19T01:38:16;6.37;;;6.17;;
27303;SDS011;14791;52.392;13.092;2023-06-19T01:40:53;6.30;;;6.12;;
27303;SDS011;14791;52.392;13.092;2023-06-19T01:43:18;7.00;;;6.80;;
27303;SDS011;14791;52.392;13.092;2023-06-19T01:45:50;6.75;;;6.55;;
27303;SDS011;14791;52.392;13.092;2023-06-19T01:48:20;6.67;;;6.45;;
27303;SDS011;14791;52.392;13.092;2023-06-19T01:50:49;7.08;;;6.87;;
27303;SDS011;14791;52.392;13.092;2023-06-19T01:53:19;7.12;;;6.92;;
27303;SDS011;14791;52.392;13.092;2023-06-19T01:55:48;6.87;;;6.67;;
27303;SDS011;14791;52.392;13.092;2023-06-19T01:58:17;6.95;;;6.75;;
27303;SDS011;14791;52.392;13.092;2023-06-19T02:00:46;6.67;;;6.47;;
27303;SDS011;14791;52.392;13.092;2023-06-19T02:03:16;6.90;;;6.70;;
27303;SDS011;14791;52.392;13.092;2023-06-19T02:05:45;6.87;;;6.67;;
27303;SDS011;14791;52.392;13.092;2023-06-19T02:08:14;7.12;;;6.92;;
27303;SDS011;14791;52.392;13.092;2023-06-19T02:10:43;7.37;;;7.17;;
27303;SDS011;14791;52.392;13.092;2023-06-19T02:13:12;6.97;;;6.70;;
27303;SDS011;14791;52.392;13.092;2023-06-19T02:15:41;7.55;;;7.35;;
27303;SDS011;14791;52.392;13.092;2023-06-19T02:18:10;7.03;;;6.83;;
27303;SDS011;14791;52.392;13.092;2023-06-19T02:20:39;7.15;;;6.85;;
27303;SDS011;14791;52.392;13.092;2023-06-19T02:23:08;7.15;;;6.95;;
27303;SDS011;14791;52.392;13.092;2023-06-19T02:25:37;7.00;;;6.80;;
27303;SDS011;14791;52.392;13.092;2023-06-19T02:28:06;6.90;;;6.60;;
27303;SDS011;14791;52.392;13.092;2023-06-19T02:30:36;6.30;;;6.10;;
27303;SDS011;14791;52.392;13.092;2023-06-19T02:33:05;7.33;;;7.03;;
27303;SDS011;14791;52.392;13.092;2023-06-19T02:35:34;7.08;;;6.87;;
27303;SDS011;14791;52.392;13.092;2023-06-19T02:38:03;7.53;;;7.22;;
27303;SDS011;14791;52.392;13.092;2023-06-19T02:40:32;6.95;;;6.75;;
27303;SDS011;14791;52.392;13.092;2023-06-19T02:43:01;7.80;;;7.45;;
27303;SDS011;14791;52.392;13.092;2023-06-19T02:45:30;7.25;;;7.05;;
27303;SDS011;14791;52.392;13.092;2023-06-19T02:47:59;7.55;;;7.35;;
27303;SDS011;14791;52.392;13.092;2023-06-19T02:50:28;7.17;;;6.97;;
27303;SDS011;14791;52.392;13.092;2023-06-19T02:52:57;7.22;;;7.03;;
27303;SDS011;14791;52.392;13.092;2023-06-19T02:55:26;7.17;;;6.97;;
27303;SDS011;14791;52.392;13.092;2023-06-19T02:57:56;8.15;;;7.22;;
27303;SDS011;14791;52.392;13.092;2023-06-19T03:00:25;7.00;;;6.70;;
27303;SDS011;14791;52.392;13.092;2023-06-19T03:02:55;6.80;;;6.60;;
27303;SDS011;14791;52.392;13.092;2023-06-19T03:05:25;7.58;;;7.37;;
27303;SDS011;14791;52.392;13.092;2023-06-19T03:07:55;7.72;;;7.42;;
27303;SDS011;14791;52.392;13.092;2023-06-19T03:10:25;6.25;;;6.08;;
27303;SDS011;14791;52.392;13.092;2023-06-19T03:12:54;7.40;;;7.20;;
27303;SDS011;14791;52.392;13.092;2023-06-19T03:15:25;7.55;;;7.35;;
27303;SDS011;14791;52.392;13.092;2023-06-19T03:17:54;7.17;;;6.97;;
27303;SDS011;14791;52.392;13.092;2023-06-19T03:20:24;7.65;;;7.35;;
27303;SDS011;14791;52.392;13.092;2023-06-19T03:22:55;7.28;;;7.08;;
27303;SDS011;14791;52.392;13.092;2023-06-19T03:25:24;7.45;;;7.25;;
27303;SDS011;14791;52.392;13.092;2023-06-19T03:27:54;7.45;;;7.15;;
27303;SDS011;14791;52.392;13.092;2023-06-19T03:30:23;7.50;;;7.28;;
27303;SDS011;14791;52.392;13.092;2023-06-19T03:32:52;7.42;;;7.22;;
27303;SDS011;14791;52.392;13.092;2023-06-19T03:35:26;6.65;;;6.45;;
27303;SDS011;14791;52.392;13.092;2023-06-19T03:37:57;7.97;;;7.58;;
27303;SDS011;14791;52.392;13.092;2023-06-19T03:40:26;7.37;;;7.17;;
27303;SDS011;14791;52.392;13.092;2023-06-19T03:42:56;7.12;;;6.92;;
27303;SDS011;14791;52.392;13.092;2023-06-19T03:45:25;8.00;;;7.70;;
27303;SDS011;14791;52.392;13.092;2023-06-19T03:47:55;7.58;;;7.37;;
27303;SDS011;14791;52.392;13.092;2023-06-19T03:50:24;7.15;;;6.95;;
27303;SDS011;14791;52.392;13.092;2023-06-19T03:52:53;7.42;;;7.12;;
27303;SDS011;14791;52.392;13.092;2023-06-19T03:55:22;7.72;;;7.50;;
27303;SDS011;14791;52.392;13.092;2023-06-19T03:57:52;7.75;;;7.45;;
27303;SDS011;14791;52.392;13.092;2023-06-19T04:00:22;7.75;;;7.30;;
27303;SDS011;14791;52.392;13.092;2023-06-19T04:02:51;7.67;;;7.45;;
27303;SDS011;14791;52.392;13.092;2023-06-19T04:05:20;8.08;;;7.78;;
27303;SDS011;14791;52.392;13.092;2023-06-19T04:07:49;7.75;;;7.45;;
27303;SDS011;14791;52.392;13.092;2023-06-19T04:10:19;8.23;;;7.92;;
27303;SDS011;14791;52.392;13.092;2023-06-19T04:12:48;7.90;;;7.60;;
27303;SDS011;14791;52.392;13.092;2023-06-19T04:15:17;7.33;;;7.12;;
27303;SDS011;14791;52.392;13.092;2023-06-19T04:17:46;7.78;;;7.58;;
27303;SDS011;14791;52.392;13.092;2023-06-19T04:20:15;8.20;;;7.87;;
27303;SDS011;14791;52.392;13.092;2023-06-19T04:22:45;9.33;;;8.83;;
27303;SDS011;14791;52.392;13.092;2023-06-19T04:25:14;8.48;;;8.18;;
27303;SDS011;14791;52.392;13.092;2023-06-19T04:27:43;7.60;;;7.30;;
27303;SDS011;14791;52.392;13.092;2023-06-19T04:30:12;7.37;;;7.15;;
27303;SDS011;14791;52.392;13.092;2023-06-19T04:32:41;8.50;;;8.00;;
27303;SDS011;14791;52.392;13.092;2023-06-19T04:35:10;7.92;;;7.67;;
27303;SDS011;14791;52.392;13.092;2023-06-19T04:37:39;7.00;;;6.80;;
27303;SDS011;14791;52.392;13.092;2023-06-19T04:40:09;7.37;;;7.05;;
27303;SDS011;14791;52.392;13.092;2023-06-19T04:42:38;7.65;;;7.45;;
27303;SDS011;14791;52.392;13.092;2023-06-19T04:45:07;8.23;;;7.92;;
27303;SDS011;14791;52.392;13.092;2023-06-19T04:47:37;7.87;;;7.58;;
27303;SDS011;14791;52.392;13.092;2023-06-19T04:50:07;7.97;;;7.72;;
27303;SDS011;14791;52.392;13.092;2023-06-19T04:52:36;8.15;;;7.85;;
27303;SDS011;14791;52.392;13.092;2023-06-19T04:55:05;6.87;;;6.67;;
27303;SDS011;14791;52.392;13.092;2023-06-19T04:57:37;8.50;;;8.20;;
27303;SDS011;14791;52.392;13.092;2023-06-19T05:00:06;7.30;;;7.08;;
27303;SDS011;14791;52.392;13.092;2023-06-19T05:02:37;7.60;;;7.35;;
27303;SDS011;14791;52.392;13.092;2023-06-19T05:05:06;8.25;;;7.95;;
27303;SDS011;14791;52.392;13.092;2023-06-19T05:07:36;7.55;;;7.30;;
27303;SDS011;14791;52.392;13.092;2023-06-19T05:10:05;8.20;;;7.80;;
27303;SDS011;14791;52.392;13.092;2023-06-19T05:12:34;8.35;;;7.95;;
27303;SDS011;14791;52.392;13.092;2023-06-19T05:15:04;7.72;;;7.45;;
27303;SDS011;14791;52.392;13.092;2023-06-19T05:17:33;7.47;;;7.28;;
27303;SDS011;14791;52.392;13.092;2023-06-19T05:20:07;7.42;;;7.22;;
27303;SDS011;14791;52.392;13.092;2023-06-19T05:22:38;7.62;;;7.42;;
27303;SDS011;14791;52.392;13.092;2023-06-19T05:25:07;7.92;;;7.62;;
27303;SDS011;14791;52.392;13.092;2023-06-19T05:27:37;7.78;;;7.58;;
27303;SDS011;14791;52.392;13.092;2023-06-19T05:30:06;8.00;;;7.80;;
27303;SDS011;14791;52.392;13.092;2023-06-19T05:32:36;9.45;;;9.00;;
27303;SDS011;14791;52.392;13.092;2023-06-19T05:35:06;8.45;;;8.15;;
27303;SDS011;14791;52.392;13.092;2023-06-19T05:37:35;8.03;;;7.50;;
27303;SDS011;14791;52.392;13.092;2023-06-19T05:40:06;7.85;;;7.55;;
27303;SDS011;14791;52.392;13.092;2023-06-19T05:42:41;7.83;;;7.50;;
27303;SDS011;14791;52.392;13.092;2023-06-19T05:45:10;8.20;;;7.90;;
27303;SDS011;14791;52.392;13.092;2023-06-19T05:47:39;7.45;;;7.17;;
27303;SDS011;14791;52.392;13.092;2023-06-19T05:50:08;8.35;;;8.05;;
27303;SDS011;14791;52.392;13.092;2023-06-19T05:52:38;7.80;;;7.60;;
27303;SDS011;14791;52.392;13.092;2023-06-19T05:55:09;7.30;;;7.10;;
27303;SDS011;14791;52.392;13.092;2023-06-19T05:57:39;7.92;;;7.65;;
27303;SDS011;14791;52.392;13.092;2023-06-19T06:00:08;7.78;;;7.47;;
27303;SDS011;14791;52.392;13.092;2023-06-19T06:02:43;7.25;;;6.95;;
27303;SDS011;14791;52.392;13.092;2023-06-19T06:05:12;6.87;;;6.67;;
27303;SDS011;14791;52.392;13.092;2023-06-19T06:07:43;7.30;;;7.00;;
27303;SDS011;14791;52.392;13.092;2023-06-19T06:10:13;6.92;;;6.72;;
27303;SDS011;14791;52.392;13.092;2023-06-19T06:12:43;7.60;;;7.20;;
27303;SDS011;14791;52.392;13.092;2023-06-19T06:15:12;7.50;;;7.25;;
27303;SDS011;14791;52.392;13.092;2023-06-19T06:17:41;5.95;;;5.75;;
27303;SDS011;14791;52.392;13.092;2023-06-19T06:20:10;7.10;;;6.90;;
27303;SDS011;14791;52.392;13.092;2023-06-19T06:22:39;8.20;;;7.90;;
27303;SDS011;14791;52.392;13.092;2023-06-19T06:25:09;7.67;;;7.37;;
27303;SDS011;14791;52.392;13.092;2023-06-19T06:27:38;7.03;;;6.83;;
27303;SDS011;14791;52.392;13.092;2023-06-19T06:30:07;6.85;;;6.58;;
27303;SDS011;14791;52.392;13.092;2023-06-19T06:32:38;6.90;;;6.70;;
27303;SDS011;14791;52.392;13.092;2023-06-19T06:35:07;6.20;;;6.00;;
27303;SDS011;14791;52.392;13.092;2023-06-19T06:37:37;6.50;;;6.33;;
27303;SDS011;14791;52.392;13.092;2023-06-19T06:40:08;7.58;;;7.28;;
27303;SDS011;14791;52.392;13.092;2023-06-19T06:42:38;6.75;;;6.55;;
27303;SDS011;14791;52.392;13.092;2023-06-19T06:45:07;7.25;;;7.05;;
27303;SDS011;14791;52.392;13.092;2023-06-19T06:47:37;6.50;;;6.30;;
27303;SDS011;14791;52.392;13.092;2023-06-19T06:50:07;6.15;;;5.95;;
27303;SDS011;14791;52.392;13.092;2023-06-19T06:52:37;6.65;;;6.35;;
27303;SDS011;14791;52.392;13.092;2023-06-19T06:55:07;7.15;;;6.92;;
27303;SDS011;14791;52.392;13.092;2023-06-19T06:57:36;5.45;;;5.35;;
27303;SDS011;14791;52.392;13.092;2023-06-19T07:00:06;7.37;;;7.08;;
27303;SDS011;14791;52.392;13.092;2023-06-19T07:02:37;7.28;;;6.97;;
27303;SDS011;14791;52.392;13.092;2023-06-19T07:05:08;7.15;;;6.80;;
27303;SDS011;14791;52.392;13.092;2023-06-19T07:07:38;5.45;;;5.25;;
27303;SDS011;14791;52.392;13.092;2023-06-19T07:10:07;6.92;;;6.72;;
27303;SDS011;14791;52.392;13.092;2023-06-19T07:12:47;6.42;;;6.22;;
27303;SDS011;14791;52.392;13.092;2023-06-19T07:15:14;6.65;;;6.45;;
27303;SDS011;14791;52.392;13.092;2023-06-19T07:17:44;7.10;;;6.90;;
27303;SDS011;14791;52.392;13.092;2023-06-19T07:20:14;6.95;;;6.75;;
27303;SDS011;14791;52.392;13.092;2023-06-19T07:22:44;6.75;;;6.40;;
27303;SDS011;14791;52.392;13.092;2023-06-19T07:25:13;6.78;;;6.58;;
27303;SDS011;14791;52.392;13.092;2023-06-19T07:27:42;6.08;;;5.92;;
27303;SDS011;14791;52.392;13.092;2023-06-19T07:30:11;7.05;;;6.85;;
27303;SDS011;14791;52.392;13.092;2023-06-19T07:32:40;6.22;;;6.03;;
27303;SDS011;14791;52.392;13.092;2023-06-19T07:35:09;7.50;;;7.20;;
27303;SDS011;14791;52.392;13.092;2023-06-19T07:37:38;7.15;;;6.95;;
27303;SDS011;14791;52.392;13.092;2023-06-19T07:40:08;6.72;;;6.53;;
27303;SDS011;14791;52.392;13.092;2023-06-19T07:42:37;6.25;;;6.15;;
27303;SDS011;14791;52.392;13.092;2023-06-19T07:45:07;6.75;;;6.55;;
27303;SDS011;14791;52.392;13.092;2023-06-19T07:47:36;6.87;;;6.67;;
27303;SDS011;14791;52.392;13.092;2023-06-19T07:50:06;6.47;;;6.28;;
27303;SDS011;14791;52.392;13.092;2023-06-19T07:52:35;5.80;;;5.70;;
27303;SDS011;14791;52.392;13.092;2023-06-19T07:55:04;5.60;;;5.50;;
27303;SDS011;14791;52.392;13.092;2023-06-19T07:57:34;6.20;;;6.00;;
27303;SDS011;14791;52.392;13.092;2023-06-19T08:00:03;6.83;;;6.62;;
27303;SDS011;14791;52.392;13.092;2023-06-19T08:02:39;6.30;;;6.10;;
27303;SDS011;14791;52.392;13.092;2023-06-19T08:05:09;6.17;;;6.08;;
27303;SDS011;14791;52.392;13.092;2023-06-19T08:07:38;6.53;;;6.22;;
27303;SDS011;14791;52.392;13.092;2023-06-19T08:10:08;6.85;;;6.65;;
27303;SDS011;14791;52.392;13.092;2023-06-19T08:12:37;6.53;;;6.33;;
27303;SDS011;14791;52.392;13.092;2023-06-19T08:15:08;5.92;;;5.72;;
27303;SDS011;14791;52.392;13.092;2023-06-19T08:17:38;7.65;;;7.45;;
27303;SDS011;14791;52.392;13.092;2023-06-19T08:20:08;7.40;;;7.20;;
27303;SDS011;14791;52.392;13.092;2023-06-19T08:22:37;6.25;;;6.05;;
27303;SDS011;14791;52.392;13.092;2023-06-19T08:25:06;5.33;;;5.22;;
27303;SDS011;14791;52.392;13.092;2023-06-19T08:27:35;7.00;;;6.60;;
27303;SDS011;14791;52.392;13.092;2023-06-19T08:30:05;6.22;;;6.03;;
27303;SDS011;14791;52.392;13.092;2023-06-19T08:32:34;7.40;;;7.20;;
27303;SDS011;14791;52.392;13.092;2023-06-19T08:35:03;6.10;;;5.92;;
27303;SDS011;14791;52.392;13.092;2023-06-19T08:37:33;7.72;;;7.33;;
27303;SDS011;14791;52.392;13.092;2023-06-19T08:40:02;7.65;;;7.45;;
27303;SDS011;14791;52.392;13.092;2023-06-19T08:42:33;7.35;;;7.15;;
27303;SDS011;14791;52.392;13.092;2023-06-19T08:45:02;8.23;;;7.92;;
27303;SDS011;14791;52.392;13.092;2023-06-19T08:47:32;8.13;;;7.92;;
27303;SDS011;14791;52.392;13.092;2023-06-19T08:50:01;8.85;;;8.55;;
27303;SDS011;14791;52.392;13.092;2023-06-19T08:52:30;7.87;;;7.58;;
27303;SDS011;14791;52.392;13.092;2023-06-19T08:55:01;7.87;;;7.58;;
27303;SDS011;14791;52.392;13.092;2023-06-19T08:57:34;7.90;;;7.50;;
27303;SDS011;14791;52.392;13.092;2023-06-19T09:00:04;8.28;;;7.97;;
27303;SDS011;14791;52.392;13.092;2023-06-19T09:02:41;7.95;;;7.75;;
27303;SDS011;14791;52.392;13.092;2023-06-19T09:05:12;7.53;;;7.22;;
27303;SDS011;14791;52.392;13.092;2023-06-19T09:07:43;8.20;;;7.92;;
27303;SDS011;14791;52.392;13.092;2023-06-19T09:10:20;8.55;;;8.25;;
27303;SDS011;14791;52.392;13.092;2023-06-19T09:12:57;8.30;;;8.08;;
27303;SDS011;14791;52.392;13.092;2023-06-19T09:15:32;9.08;;;8.78;;
27303;SDS011;14791;52.392;13.092;2023-06-19T09:18:02;9.03;;;8.73;;
27303;SDS011;14791;52.392;13.092;2023-06-19T09:20:42;9.08;;;8.68;;
27303;SDS011;14791;52.392;13.092;2023-06-19T09:23:17;8.75;;;8.35;;
27303;SDS011;14791;52.392;13.092;2023-06-19T09:25:48;8.83;;;8.63;;
27303;SDS011;14791;52.392;13.092;2023-06-19T09:28:19;8.83;;;8.55;;
27303;SDS011;14791;52.392;13.092;2023-06-19T09:33:32;9.05;;;8.65;;
27303;SDS011;14791;52.392;13.092;2023-06-19T09:36:02;8.80;;;8.50;;
27303;SDS011;14791;52.392;13.092;2023-06-19T09:38:34;9.48;;;9.18;;
27303;SDS011;14791;52.392;13.092;2023-06-19T09:41:07;9.10;;;8.73;;
27303;SDS011;14791;52.392;13.092;2023-06-19T09:43:38;8.33;;;8.03;;
27303;SDS011;14791;52.392;13.092;2023-06-19T09:46:12;10.05;;;9.65;;
27303;SDS011;14791;52.392;13.092;2023-06-19T09:48:44;8.05;;;7.85;;
27303;SDS011;14791;52.392;13.092;2023-06-19T09:51:27;8.18;;;7.78;;
27303;SDS011;14791;52.392;13.092;2023-06-19T09:53:59;8.93;;;8.68;;
27303;SDS011;14791;52.392;13.092;2023-06-19T09:56:31;9.50;;;9.20;;
27303;SDS011;14791;52.392;13.092;2023-06-19T09:59:00;8.88;;;8.53;;
27303;SDS011;14791;52.392;13.092;2023-06-19T10:01:31;9.03;;;8.80;;
27303;SDS011;14791;52.392;13.092;2023-06-19T10:04:04;8.28;;;8.08;;
27303;SDS011;14791;52.392;13.092;2023-06-19T10:06:44;8.00;;;7.80;;
27303;SDS011;14791;52.392;13.092;2023-06-19T10:09:15;7.72;;;7.47;;
27303;SDS011;14791;52.392;13.092;2023-06-19T10:11:51;8.23;;;7.92;;
27303;SDS011;14791;52.392;13.092;2023-06-19T10:14:21;8.38;;;7.95;;
27303;SDS011;14791;52.392;13.092;2023-06-19T10:16:51;8.88;;;8.58;;
27303;SDS011;14791;52.392;13.092;2023-06-19T10:19:21;8.13;;;7.92;;
27303;SDS011;14791;52.392;13.092;2023-06-19T10:21:52;8.90;;;8.40;;
27303;SDS011;14791;52.392;13.092;2023-06-19T10:24:23;8.43;;;8.23;;
27303;SDS011;14791;52.392;13.092;2023-06-19T10:26:58;8.35;;;8.05;;
27303;SDS011;14791;52.392;13.092;2023-06-19T10:29:40;8.33;;;8.13;;
27303;SDS011;14791;52.392;13.092;2023-06-19T10:32:09;8.00;;;7.80;;
27303;SDS011;14791;52.392;13.092;2023-06-19T10:34:38;8.18;;;7.95;;
27303;SDS011;14791;52.392;13.092;2023-06-19T10:37:07;7.58;;;7.17;;
27303;SDS011;14791;52.392;13.092;2023-06-19T10:39:36;8.05;;;7.60;;
27303;SDS011;14791;52.392;13.092;2023-06-19T10:42:11;8.15;;;7.85;;
27303;SDS011;14791;52.392;13.092;2023-06-19T10:44:36;9.00;;;8.60;;
27303;SDS011;14791;52.392;13.092;2023-06-19T10:47:05;6.87;;;6.67;;
27303;SDS011;14791;52.392;13.092;2023-06-19T10:49:37;7.10;;;6.90;;
27303;SDS011;14791;52.392;13.092;2023-06-19T10:52:07;8.85;;;8.55;;
27303;SDS011;14791;52.392;13.092;2023-06-19T10:54:36;7.20;;;7.00;;
27303;SDS011;14791;52.392;13.092;2023-06-19T10:57:05;6.67;;;6.58;;
27303;SDS011;14791;52.392;13.092;2023-06-19T10:59:34;8.15;;;7.75;;
27303;SDS011;14791;52.392;13.092;2023-06-19T11:02:03;7.47;;;7.28;;
27303;SDS011;14791;52.392;13.092;2023-06-19T11:04:32;7.15;;;6.95;;
27303;SDS011;14791;52.392;13.092;2023-06-19T11:07:05;7.80;;;7.60;;
27303;SDS011;14791;52.392;13.092;2023-06-19T11:09:35;7.17;;;6.97;;
27303;SDS011;14791;52.392;13.092;2023-06-19T11:12:04;7.97;;;7.67;;
27303;SDS011;14791;52.392;13.092;2023-06-19T11:14:35;6.58;;;6.37;;
27303;SDS011;14791;52.392;13.092;2023-06-19T11:17:06;7.08;;;6.87;;
27303;SDS011;14791;52.392;13.092;2023-06-19T11:19:36;7.03;;;6.85;;
27303;SDS011;14791;52.392;13.092;2023-06-19T11:22:08;7.25;;;6.95;;
27303;SDS011;14791;52.392;13.092;2023-06-19T11:24:42;7.22;;;7.03;;
27303;SDS011;14791;52.392;13.092;2023-06-19T11:27:18;6.55;;;6.35;;
27303;SDS011;14791;52.392;13.092;2023-06-19T11:29:55;7.25;;;7.05;;
27303;SDS011;14791;52.392;13.092;2023-06-19T11:32:32;7.22;;;6.92;;
27303;SDS011;14791;52.392;13.092;2023-06-19T11:35:09;6.10;;;5.90;;
27303;SDS011;14791;52.392;13.092;2023-06-19T11:37:40;6.53;;;6.33;;
27303;SDS011;14791;52.392;13.092;2023-06-19T11:40:11;6.85;;;6.65;;
27303;SDS011;14791;52.392;13.092;2023-06-19T11:42:44;7.60;;;7.28;;
27303;SDS011;14791;52.392;13.092;2023-06-19T11:45:14;7.40;;;7.20;;
27303;SDS011;14791;52.392;13.092;2023-06-19T11:47:44;8.83;;;8.53;;
27303;SDS011;14791;52.392;13.092;2023-06-19T11:50:15;7.42;;;7.22;;
27303;SDS011;14791;52.392;13.092;2023-06-19T11:52:47;6.55;;;6.42;;
27303;SDS011;14791;52.392;13.092;2023-06-19T11:55:16;6.37;;;6.20;;
27303;SDS011;14791;52.392;13.092;2023-06-19T11:57:45;7.40;;;7.00;;
27303;SDS011;14791;52.392;13.092;2023-06-19T12:00:15;6.15;;;5.95;;
27303;SDS011;14791;52.392;13.092;2023-06-19T12:02:44;6.03;;;5.92;;
27303;SDS011;14791;52.392;13.092;2023-06-19T12:05:14;5.83;;;5.72;;
27303;SDS011;14791;52.392;13.092;2023-06-19T12:07:44;6.25;;;6.15;;
27303;SDS011;14791;52.392;13.092;2023-06-19T12:10:13;6.58;;;6.28;;
27303;SDS011;14791;52.392;13.092;2023-06-19T12:12:42;6.53;;;6.33;;
27303;SDS011;14791;52.392;13.092;2023-06-19T12:15:11;5.97;;;5.78;;
27303;SDS011;14791;52.392;13.092;2023-06-19T12:17:40;6.47;;;6.28;;
27303;SDS011;14791;52.392;13.092;2023-06-19T12:20:09;5.80;;;5.60;;
27303;SDS011;14791;52.392;13.092;2023-06-19T12:22:40;6.28;;;6.08;;
27303;SDS011;14791;52.392;13.092;2023-06-19T12:25:09;5.70;;;5.53;;
27303;SDS011;14791;52.392;13.092;2023-06-19T12:27:38;6.25;;;6.05;;
27303;SDS011;14791;52.392;13.092;2023-06-19T12:30:08;5.97;;;5.67;;
27303;SDS011;14791;52.392;13.092;2023-06-19T12:32:38;7.87;;;7.37;;
27303;SDS011;14791;52.392;13.092;2023-06-19T12:35:07;7.00;;;6.90;;
27303;SDS011;14791;52.392;13.092;2023-06-19T12:37:37;6.28;;;6.08;;
27303;SDS011;14791;52.392;13.092;2023-06-19T12:40:06;6.78;;;6.58;;
27303;SDS011;14791;52.392;13.092;2023-06-19T12:42:37;6.55;;;6.40;;
27303;SDS011;14791;52.392;13.092;2023-06-19T12:45:06;6.80;;;6.60;;
27303;SDS011;14791;52.392;13.092;2023-06-19T12:47:36;6.78;;;6.67;;
27303;SDS011;14791;52.392;13.092;2023-06-19T12:50:05;6.37;;;6.17;;
27303;SDS011;14791;52.392;13.092;2023-06-19T12:52:35;6.40;;;6.20;;
27303;SDS011;14791;52.392;13.092;2023-06-19T12:55:04;6.65;;;6.45;;
27303;SDS011;14791;52.392;13.092;2023-06-19T12:57:33;6.97;;;6.78;;
27303;SDS011;14791;52.392;13.092;2023-06-19T13:00:03;6.97;;;6.87;;
27303;SDS011;14791;52.392;13.092;2023-06-19T13:02:34;6.97;;;6.78;;
27303;SDS011;14791;52.392;13.092;2023-06-19T13:05:04;6.75;;;6.55;;
27303;SDS011;14791;52.392;13.092;2023-06-19T13:07:33;6.15;;;6.05;;
27303;SDS011;14791;52.392;13.092;2023-06-19T13:10:02;5.75;;;5.60;;
27303;SDS011;14791;52.392;13.092;2023-06-19T13:12:33;7.15;;;6.95;;
27303;SDS011;14791;52.392;13.092;2023-06-19T13:15:02;7.72;;;7.35;;
27303;SDS011;14791;52.392;13.092;2023-06-19T13:17:32;7.10;;;6.90;;
27303;SDS011;14791;52.392;13.092;2023-06-19T13:20:01;7.55;;;7.35;;
27303;SDS011;14791;52.392;13.092;2023-06-19T13:22:32;7.05;;;6.85;;
27303;SDS011;14791;52.392;13.092;2023-06-19T13:25:01;7.83;;;7.62;;
27303;SDS011;14791;52.392;13.092;2023-06-19T13:27:30;7.83;;;7.42;;
27303;SDS011;14791;52.392;13.092;2023-06-19T13:30:00;6.78;;;6.65;;
27303;SDS011;14791;52.392;13.092;2023-06-19T13:32:29;7.17;;;7.05;;
27303;SDS011;14791;52.392;13.092;2023-06-19T13:34:58;6.70;;;6.50;;
27303;SDS011;14791;52.392;13.092;2023-06-19T13:37:27;7.05;;;6.85;;
27303;SDS011;14791;52.392;13.092;2023-06-19T13:39:57;6.40;;;6.30;;
27303;SDS011;14791;52.392;13.092;2023-06-19T13:42:27;6.35;;;6.25;;
27303;SDS011;14791;52.392;13.092;2023-06-19T13:44:57;7.12;;;6.92;;
27303;SDS011;14791;52.392;13.092;2023-06-19T13:47:26;7.53;;;7.22;;
27303;SDS011;14791;52.392;13.092;2023-06-19T13:49:55;7.03;;;6.85;;
27303;SDS011;14791;52.392;13.092;2023-06-19T13:52:24;6.53;;;6.33;;
27303;SDS011;14791;52.392;13.092;2023-06-19T13:54:53;6.62;;;6.42;;
27303;SDS011;14791;52.392;13.092;2023-06-19T13:57:22;6.95;;;6.75;;
27303;SDS011;14791;52.392;13.092;2023-06-19T13:59:51;7.30;;;7.15;;
27303;SDS011;14791;52.392;13.092;2023-06-19T14:02:20;6.87;;;6.70;;
27303;SDS011;14791;52.392;13.092;2023-06-19T14:04:49;6.87;;;6.70;;
27303;SDS011;14791;52.392;13.092;2023-06-19T14:07:19;7.22;;;7.03;;
27303;SDS011;14791;52.392;13.092;2023-06-19T14:09:49;7.12;;;6.83;;
27303;SDS011;14791;52.392;13.092;2023-06-19T14:12:20;7.20;;;7.00;;
27303;SDS011;14791;52.392;13.092;2023-06-19T14:14:49;7.40;;;7.20;;
27303;SDS011;14791;52.392;13.092;2023-06-19T14:17:18;7.87;;;7.37;;
27303;SDS011;14791;52.392;13.092;2023-06-19T14:19:49;6.92;;;6.72;;
27303;SDS011;14791;52.392;13.092;2023-06-19T14:22:18;6.53;;;6.33;;
27303;SDS011;14791;52.392;13.092;2023-06-19T14:24:47;7.35;;;7.15;;
27303;SDS011;14791;52.392;13.092;2023-06-19T14:27:16;7.65;;;7.35;;
27303;SDS011;14791;52.392;13.092;2023-06-19T14:29:45;7.70;;;7.50;;
27303;SDS011;14791;52.392;13.092;2023-06-19T14:32:14;7.00;;;6.80;;
27303;SDS011;14791;52.392;13.092;2023-06-19T14:34:43;7.10;;;6.90;;
27303;SDS011;14791;52.392;13.092;2023-06-19T14:37:12;7.28;;;7.08;;
27303;SDS011;14791;52.392;13.092;2023-06-19T14:39:41;6.80;;;6.60;;
27303;SDS011;14791;52.392;13.092;2023-06-19T14:42:10;6.58;;;6.42;;
27303;SDS011;14791;52.392;13.092;2023-06-19T14:44:39;6.87;;;6.67;;
27303;SDS011;14791;52.392;13.092;2023-06-19T14:47:08;7.28;;;6.97;;
27303;SDS011;14791;52.392;13.092;2023-06-19T14:49:37;6.83;;;6.62;;
27303;SDS011;14791;52.392;13.092;2023-06-19T14:52:06;6.55;;;6.35;;